Latest Weather Observations for Low Rocky Point

IDT60801

Issued at 10:05 pm EST Sunday 21 September 2014 (issued every 30 minutes, with the page automatically refreshed every 10 minutes)

About weather observations | Map of weather stations | Latest weather observations for TAS | Other Formats
Station Details ID: 097080 Name: LOW ROCKY POINT Lat: -42.98 Lon: 145.50 Height: 34.0 m
Data from the previous 72 hours. | See also: Recent months at Low Rocky Point
Date/Time
EST
Temp
°C
App
Temp
°C
Dew
Point
Rel
Hum
%
Delta-T
°C
Wind Press
QNH
hPa
Press
MSL
hPa
Rain
since 9 am
mm
Dir
 
Spd
km/h
Gust
km/h
Spd
kts
Gust
kts
21/10:00pm 10.9 7.3 6.8 76 1.9 N 15 17 8 9 1029.0 1029.0 0.0
21/09:30pm 11.8 8.8 7.5 75 2.1 NW 13 17 7 9 1029.4 1029.5 0.0
21/09:00pm 11.9 8.4 7.4 74 2.2 NW 15 19 8 10 1029.5 1029.5 0.0
21/08:30pm 11.9 8.7 7.0 72 2.3 NW 13 19 7 10 1029.7 1029.8 0.0
21/08:00pm 11.9 7.5 7.4 74 2.2 WNW 20 24 11 13 1029.8 1029.8 0.0
21/07:30pm 11.9 7.8 7.8 76 2.0 WNW 19 22 10 12 1029.8 1029.9 0.0
21/07:00pm 11.9 7.5 6.6 70 2.5 NW 19 28 10 15 1029.5 1029.5 0.0
21/06:30pm 11.9 7.3 6.6 70 2.5 NW 20 28 11 15 1029.2 1029.3 0.0
21/06:00pm 12.0 6.7 6.9 71 2.4 WNW 24 30 13 16 1029.0 1029.0 0.0
21/05:30pm 12.2 8.0 7.5 73 2.3 WNW 19 22 10 12 1029.0 1029.0 0.0
21/05:00pm 12.4 8.3 7.7 73 2.3 W 19 24 10 13 1029.1 1029.1 0.0
21/04:30pm 13.1 9.0 8.6 74 2.3 WNW 20 26 11 14 1029.0 1029.0 0.0
21/04:00pm 12.8 8.7 8.5 75 2.1 W 20 26 11 14 1029.1 1029.1 0.0
21/03:30pm 13.2 9.2 8.1 71 2.5 NW 19 24 10 13 1029.0 1029.0 0.0
21/03:00pm 13.9 10.0 8.7 71 2.6 WNW 19 22 10 12 1029.2 1029.2 0.0
21/02:30pm 13.7 9.1 8.1 69 2.8 WNW 22 26 12 14 1029.1 1029.1 0.0
21/02:00pm 13.6 9.0 8.2 70 2.7 WNW 22 28 12 15 1029.2 1029.2 0.0
21/01:30pm 13.3 7.9 8.0 70 2.6 WNW 26 30 14 16 1029.3 1029.4 0.0
21/01:00pm 14.0 9.3 7.8 66 3.0 WNW 22 28 12 15 1029.3 1029.3 0.0
21/12:30pm 14.0 7.6 8.4 69 2.8 WNW 32 37 17 20 1029.4 1029.5 0.0
21/12:00pm 13.5 8.2 8.6 72 2.4 WNW 26 32 14 17 1029.4 1029.4 0.0
21/11:30am 14.3 9.2 9.3 72 2.6 W 26 32 14 17 1029.5 1029.6 0.0
21/11:00am 14.2 9.8 8.8 70 2.7 WNW 22 24 12 13 1029.6 1029.6 0.0
21/10:30am 14.1 9.7 8.9 71 2.6 W 22 26 12 14 1029.7 1029.8 0.0
21/10:00am 13.7 9.6 8.7 72 2.5 W 20 24 11 13 1029.6 1029.6 0.0
21/09:30am 13.4 8.9 8.7 73 2.3 W 22 26 12 14 1029.5 1029.6 0.0
21/09:00am 12.5 8.0 8.6 77 1.9 W 22 26 12 14 1029.4 1029.4 0.6
21/08:30am 12.6 8.7 8.5 76 2.0 W 19 24 10 13 1029.2 1029.3 0.6
21/08:00am 12.2 7.6 8.3 77 1.9 W 22 32 12 17 1029.0 1029.0 0.6
21/07:30am 11.5 6.5 8.0 79 1.7 W 24 30 13 16 1028.7 1028.7 0.6
21/07:00am 11.5 8.3 8.5 82 1.5 W 15 20 8 11 1028.5 1028.5 0.6
21/06:30am 11.2 7.2 8.1 81 1.5 WSW 19 24 10 13 1028.2 1028.2 0.6
21/06:00am 11.3 6.7 8.3 82 1.5 W 22 28 12 15 1027.8 1027.8 0.6
21/05:30am 11.4 5.1 9.0 85 1.2 W 32 37 17 20 1027.5 1027.5 0.6
21/05:00am 11.2 4.6 9.9 92 0.7 W 35 46 19 25 1027.2 1027.2 0.6
21/04:30am 11.0 6.2 10.4 96 0.3 WSW 26 35 14 19 1027.2 1027.2 0.6
21/04:00am 10.9 5.6 10.0 94 0.5 W 28 37 15 20 1027.0 1027.0 0.4
21/03:30am 11.3 5.1 10.2 93 0.6 W 33 43 18 23 1026.9 1026.9 0.4
21/03:00am 11.5 5.2 9.8 89 0.9 WNW 33 39 18 21 1026.9 1026.9 0.2
21/02:30am 11.5 5.1 9.2 86 1.2 WNW 33 41 18 22 1026.9 1026.9 0.2
21/02:00am 11.9 4.6 8.7 81 1.6 WNW 37 46 20 25 1027.1 1027.1 0.2
21/01:30am 12.0 4.6 8.3 78 1.8 WNW 37 46 20 25 1027.4 1027.4 0.2
21/01:00am 12.0 4.6 8.3 78 1.8 WNW 37 44 20 24 1027.7 1027.7 0.2
21/12:30am 11.9 4.8 8.2 78 1.8 WNW 35 41 19 22 1027.5 1027.5 0.2
21/12:00am 11.9 5.5 8.4 79 1.7 WNW 32 37 17 20 1027.4 1027.4 0.2
 
Date/Time
EST
Temp
°C
App
Temp
°C
Dew
Point
Rel
Hum
%
Delta-T
°C
Wind Press
QNH
hPa
Press
MSL
hPa
Rain
since 9 am
mm
Dir
 
Spd
km/h
Gust
km/h
Spd
kts
Gust
kts
20/11:30pm 11.8 5.1 8.1 78 1.8 WNW 33 39 18 21 1027.3 1027.3 0.2
20/11:00pm 11.8 5.1 8.1 78 1.8 WNW 33 41 18 22 1027.5 1027.5 0.2
20/10:30pm 11.9 5.4 8.0 77 1.9 WNW 32 37 17 20 1027.7 1027.7 0.2
20/10:00pm 11.8 5.2 7.7 76 2.0 WNW 32 39 17 21 1027.8 1027.8 0.2
20/09:30pm 11.8 5.1 7.5 75 2.1 WNW 32 35 17 19 1027.8 1027.8 0.2
20/09:00pm 11.8 5.5 7.3 74 2.2 WNW 30 35 16 19 1027.9 1027.9 0.2
20/08:30pm 11.7 5.0 7.2 74 2.2 W 32 37 17 20 1028.0 1028.0 0.2
20/08:00pm 11.7 5.3 7.0 73 2.2 W 30 39 16 21 1027.7 1027.7 0.2
20/07:30pm 11.4 5.5 7.5 77 1.9 WNW 28 33 15 18 1027.5 1027.5 0.2
20/07:00pm 11.4 5.3 8.1 80 1.6 W 30 37 16 20 1027.4 1027.4 0.2
20/06:30pm 11.3 5.1 8.0 80 1.6 WNW 30 35 16 19 1027.1 1027.1 0.2
20/06:00pm 11.1 5.3 7.8 80 1.6 WNW 28 33 15 18 1026.8 1026.8 0.2
20/05:30pm 10.9 4.1 7.8 81 1.5 WNW 33 39 18 21 1026.7 1026.7 0.2
20/05:00pm 11.5 4.3 7.8 78 1.8 WNW 35 43 19 23 1026.3 1026.3 0.2
20/04:30pm 11.2 6.2 8.2 82 1.5 WNW 24 32 13 17 1026.0 1026.0 0.2
20/04:00pm 10.6 3.8 7.7 82 1.4 W 33 44 18 24 1026.6 1026.6 0.2
20/03:57pm 10.7 4.4 7.6 81 1.5 W 30 39 16 21 1026.6 1026.6 0.2
20/03:30pm 11.7 7.9 7.6 76 2.0 W 17 20 9 11 1026.4 1026.4 0.2
20/03:00pm 11.8 5.5 7.3 74 2.2 W 30 35 16 19 1026.3 1026.3 0.2
20/02:30pm 11.8 5.1 7.3 74 2.2 W 32 37 17 20 1026.3 1026.3 0.2
20/02:00pm 12.0 5.7 7.3 73 2.3 W 30 37 16 20 1026.2 1026.2 0.2
20/01:30pm 12.0 5.3 7.5 74 2.2 W 32 37 17 20 1026.1 1026.1 0.2
20/01:00pm 11.2 4.9 7.3 77 1.9 W 30 39 16 21 1026.3 1026.3 0.2
20/12:30pm 11.6 5.0 7.9 78 1.8 W 32 37 17 20 1026.1 1026.1 0.2
20/12:00pm 10.9 4.9 8.7 86 1.1 W 30 37 16 20 1026.4 1026.4 0.2
20/11:30am 11.5 6.1 9.6 88 1.0 W 28 35 15 19 1026.3 1026.3 0.2
20/11:00am 10.6 7.2 9.0 90 0.8 WNW 17 20 9 11 1026.3 1026.3 0.2
20/10:30am 10.8 4.3 8.2 84 1.3 WSW 32 41 17 22 1026.1 1026.1 0.2
20/10:00am 11.1 4.7 8.7 85 1.2 W 32 39 17 21 1025.8 1025.8 0.0
20/09:30am 10.8 5.8 9.4 91 0.7 W 26 32 14 17 1025.6 1025.6 0.0
20/09:00am 10.0 4.1 8.9 93 0.5 WSW 30 39 16 21 1025.7 1025.7 3.0
20/08:30am 9.8 4.6 9.0 95 0.4 WNW 26 32 14 17 1025.5 1025.5 3.0
20/08:00am 9.8 7.1 8.9 94 0.4 W 13 15 7 8 1025.4 1025.4 3.0
20/07:30am 9.8 5.9 8.7 93 0.5 WSW 19 28 10 15 1025.2 1025.2 2.4
20/07:00am 9.7 4.4 8.3 91 0.7 W 26 32 14 17 1024.7 1024.7 2.4
20/06:30am 9.9 5.7 8.3 90 0.8 W 20 32 11 17 1024.4 1024.4 2.2
20/06:00am 10.3 4.6 8.2 87 1.0 WSW 28 43 15 23 1024.1 1024.1 2.0
20/05:30am 10.5 5.7 8.8 89 0.8 WSW 24 32 13 17 1023.7 1023.7 2.0
20/05:00am 10.5 5.4 9.1 91 0.7 WSW 26 37 14 20 1023.3 1023.3 2.0
20/04:30am 10.3 6.3 9.2 93 0.5 WSW 20 28 11 15 1022.8 1022.8 2.0
20/04:00am 10.0 6.3 9.4 96 0.3 WSW 19 24 10 13 1022.7 1022.7 2.0
20/03:30am 10.2 5.6 9.7 97 0.3 WSW 24 32 13 17 1022.5 1022.5 2.0
20/03:00am 9.8 5.1 9.3 97 0.2 SW 24 35 13 19 1022.4 1022.4 2.0
20/02:30am 9.8 4.3 9.3 97 0.2 WSW 28 39 15 21 1022.4 1022.4 2.0
20/02:00am 10.1 5.5 9.6 97 0.2 SW 24 32 13 17 1022.3 1022.3 2.0
20/01:30am 9.7 4.2 9.2 97 0.2 SW 28 41 15 22 1022.4 1022.4 2.0
20/01:00am 9.7 4.7 9.4 98 0.1 SW 26 37 14 20 1022.3 1022.3 2.0
20/12:30am 10.2 5.7 9.9 98 0.2 WSW 24 35 13 19 1022.2 1022.2 2.0
20/12:00am 10.0 4.3 9.7 98 0.1 SW 30 43 16 23 1022.0 1022.0 2.0
 
Date/Time
EST
Temp
°C
App
Temp
°C
Dew
Point
Rel
Hum
%
Delta-T
°C
Wind Press
QNH
hPa
Press
MSL
hPa
Rain
since 9 am
mm
Dir
 
Spd
km/h
Gust
km/h
Spd
kts
Gust
kts
19/11:30pm 10.4 5.1 9.9 97 0.3 SW 28 37 15 20 1022.0 1022.0 1.8
19/11:00pm 9.7 3.3 9.2 97 0.2 SW 33 44 18 24 1022.1 1022.1 1.8
19/10:30pm 10.4 5.1 9.8 96 0.3 SW 28 41 15 22 1022.0 1022.0 1.8
19/10:00pm 10.5 5.2 9.7 95 0.4 SW 28 37 15 20 1021.9 1021.9 1.4
19/09:30pm 10.5 5.2 9.9 96 0.3 SW 28 39 15 21 1021.8 1021.8 1.4
19/09:00pm 10.7 5.8 10.1 96 0.3 WSW 26 35 14 19 1021.6 1021.6 1.4
19/08:30pm 10.4 5.0 9.6 95 0.4 WSW 28 37 15 20 1021.5 1021.5 1.2
19/08:00pm 10.8 4.7 9.7 93 0.6 WSW 32 48 17 26 1021.4 1021.4 1.2
19/07:30pm 11.1 5.8 9.9 92 0.6 WSW 28 39 15 21 1021.1 1021.1 0.6
19/07:00pm 10.9 5.6 10.0 94 0.5 WSW 28 39 15 21 1020.9 1020.9 0.6
19/06:30pm 10.8 5.9 9.9 94 0.5 WSW 26 39 14 21 1020.5 1020.5 0.6
19/06:00pm 10.2 4.4 9.3 94 0.4 SW 30 44 16 24 1020.3 1020.3 0.6
19/05:30pm 10.4 5.4 9.5 94 0.5 WSW 26 37 14 20 1020.1 1020.1 0.6
19/05:00pm 10.5 4.7 9.4 93 0.5 WSW 30 41 16 22 1019.8 1019.8 0.6
19/04:30pm 11.1 4.9 9.2 88 0.9 W 32 43 17 23 1019.7 1019.7 0.2
19/04:00pm 11.3 4.6 8.3 82 1.5 WSW 33 41 18 22 1019.6 1019.6 0.0
19/03:30pm 12.3 6.6 8.4 77 1.9 W 28 33 15 18 1019.5 1019.5 0.0
19/03:00pm 12.4 7.8 8.1 75 2.1 WSW 22 32 12 17 1019.5 1019.5 0.0
19/02:30pm 12.8 7.4 8.1 73 2.3 WSW 26 35 14 19 1019.4 1019.4 0.0
19/02:00pm 13.1 9.4 8.0 71 2.5 WSW 17 24 9 13 1019.3 1019.3 0.0
19/01:30pm 13.0 8.4 8.3 73 2.3 WSW 22 32 12 17 1019.4 1019.4 0.0
19/01:00pm 13.3 8.3 8.0 70 2.6 WSW 24 32 13 17 1019.4 1019.4 0.0
19/12:30pm 12.3 7.5 8.8 79 1.7 WSW 24 37 13 20 1019.4 1019.4 0.0
19/12:00pm 13.1 8.9 8.2 72 2.4 WSW 20 30 11 16 1019.5 1019.5 0.0
19/11:30am 13.6 9.0 8.0 69 2.8 WSW 22 30 12 16 1019.5 1019.5 0.0
19/11:00am 13.6 8.1 7.6 67 2.9 WSW 26 39 14 21 1019.6 1019.6 0.0
19/10:30am 13.2 8.1 9.1 76 2.1 WSW 26 37 14 20 1019.5 1019.5 0.0
19/10:00am 12.3 6.8 9.3 82 1.5 WSW 28 39 15 21 1019.4 1019.4 0.0
19/09:30am 11.3 5.5 7.8 79 1.7 WSW 28 48 15 26 1019.4 1019.4 0.0
19/09:24am 12.1 6.3 7.8 75 2.1 WSW 28 48 15 26 1019.4 1019.4 0.0
19/09:00am 11.9 6.8 7.8 76 2.0 WSW 24 33 13 18 1019.3 1019.3 1.8
19/08:30am 11.8 6.6 7.3 74 2.2 WSW 24 32 13 17 1019.1 1019.1 1.8
19/08:00am 11.2 4.4 6.7 74 2.1 SW 32 43 17 23 1019.0 1019.0 1.8
19/07:40am 11.3 4.5 7.0 75 2.1 WSW 32 50 17 27 1018.8 1018.8 1.8
19/07:30am 11.0 4.0 6.9 76 1.9 SW 33 48 18 26 1018.8 1018.8 1.8
19/07:00am 10.9 5.1 8.0 82 1.4 WSW 28 39 15 21 1018.6 1018.6 1.8
19/06:30am 10.8 5.1 8.2 84 1.3 SW 28 43 15 23 1018.3 1018.3 1.8
19/06:13am 10.7 3.6 8.1 84 1.3 SW 35 57 19 31 1018.2 1018.2 1.8
19/06:00am 10.8 3.7 8.2 84 1.3 SW 35 46 19 25 1018.0 1018.0 1.8
19/05:30am 10.8 4.1 8.2 84 1.3 SW 33 46 18 25 1017.7 1017.7 1.8
19/05:02am 11.0 4.6 8.4 84 1.3 WSW 32 50 17 27 1017.7 1017.7 1.8
19/05:00am 11.0 4.9 8.4 84 1.3 WSW 30 44 16 24 1017.6 1017.6 1.8
19/04:30am 11.0 4.4 8.6 85 1.2 WSW 33 46 18 25 1017.5 1017.5 1.8
19/04:20am 10.7 3.7 8.3 85 1.2 WSW 35 54 19 29 1017.4 1017.4 1.8
19/04:00am 11.0 3.8 9.1 88 0.9 WSW 37 52 20 28 1017.2 1017.2 1.8
19/03:30am 10.6 2.6 9.0 90 0.8 WSW 41 54 22 29 1017.1 1017.1 1.6
19/03:01am 10.4 2.7 8.5 88 0.9 WSW 39 61 21 33 1017.4 1017.4 1.6
19/03:00am 10.6 2.9 8.7 88 0.9 WSW 39 54 21 29 1017.3 1017.3 1.4
19/02:44am 11.3 3.6 8.7 84 1.3 WSW 39 63 21 34 1017.3 1017.3 1.4
19/02:30am 11.1 3.7 8.5 84 1.3 WSW 37 48 20 26 1017.4 1017.4 1.4
19/02:00am 11.0 2.6 8.8 86 1.1 WSW 43 57 23 31 1017.5 1017.5 1.4
19/01:50am 10.9 4.0 8.8 87 1.0 WSW 35 54 19 29 1017.5 1017.5 1.4
19/01:30am 10.8 2.4 9.1 89 0.8 W 43 54 23 29 1017.6 1017.6 1.4
19/01:02am 11.0 1.8 8.0 82 1.5 W 46 65 25 35 1017.7 1017.7 1.0
19/01:00am 11.3 2.2 8.5 83 1.4 W 46 59 25 32 1017.5 1017.5 1.0
19/12:30am 11.2 2.8 9.1 87 1.0 W 43 52 23 28 1017.5 1017.5 1.0
19/12:00am 10.8 2.3 9.2 90 0.8 W 44 56 24 30 1017.7 1017.7 1.0
 
Date/Time
EST
Temp
°C
App
Temp
°C
Dew
Point
Rel
Hum
%
Delta-T
°C
Wind Press
QNH
hPa
Press
MSL
hPa
Rain
since 9 am
mm
Dir
 
Spd
km/h
Gust
km/h
Spd
kts
Gust
kts
18/11:30pm 11.1 3.0 8.8 86 1.1 W 41 50 22 27 1017.8 1017.8 0.8
18/11:00pm 10.9 2.3 8.8 87 1.0 W 44 56 24 30 1017.9 1017.9 0.8
18/10:30pm 11.0 2.6 8.8 86 1.1 W 43 52 23 28 1017.9 1017.9 0.6

Other Formats:

Comma delimited format used in spreadsheet applications
http://www.bom.gov.au/fwo/IDT60801/IDT60801.95961.axf

JavaScript Object Notation format (JSON) in row-major order
http://www.bom.gov.au/fwo/IDT60801/IDT60801.95961.json